sensor_id;sensor_type;location;lat;lon;timestamp;P1;durP1;ratioP1;P2;durP2;ratioP2
81934;SDS011;71405;47.674;-2.050;2023-09-07T00:01:23;0.40;;;0.40;;
81934;SDS011;71405;47.674;-2.050;2023-09-07T00:03:48;0.40;;;0.40;;
81934;SDS011;71405;47.674;-2.050;2023-09-07T00:06:15;0.75;;;0.40;;
81934;SDS011;71405;47.674;-2.050;2023-09-07T00:08:40;0.55;;;0.40;;
81934;SDS011;71405;47.674;-2.050;2023-09-07T00:11:06;0.60;;;0.40;;
81934;SDS011;71405;47.674;-2.050;2023-09-07T00:13:33;0.80;;;0.40;;
81934;SDS011;71405;47.674;-2.050;2023-09-07T00:15:59;0.40;;;0.40;;
81934;SDS011;71405;47.674;-2.050;2023-09-07T00:18:26;0.30;;;0.30;;
81934;SDS011;71405;47.674;-2.050;2023-09-07T00:20:52;0.40;;;0.40;;
81934;SDS011;71405;47.674;-2.050;2023-09-07T00:23:18;0.30;;;0.30;;
81934;SDS011;71405;47.674;-2.050;2023-09-07T00:25:45;0.30;;;0.30;;
81934;SDS011;71405;47.674;-2.050;2023-09-07T00:28:11;0.38;;;0.38;;
81934;SDS011;71405;47.674;-2.050;2023-09-07T00:30:36;0.40;;;0.40;;
81934;SDS011;71405;47.674;-2.050;2023-09-07T00:33:03;0.30;;;0.30;;
81934;SDS011;71405;47.674;-2.050;2023-09-07T00:35:29;0.40;;;0.40;;
81934;SDS011;71405;47.674;-2.050;2023-09-07T00:37:54;0.30;;;0.30;;
81934;SDS011;71405;47.674;-2.050;2023-09-07T00:40:20;0.30;;;0.30;;
81934;SDS011;71405;47.674;-2.050;2023-09-07T00:42:47;0.50;;;0.50;;
81934;SDS011;71405;47.674;-2.050;2023-09-07T00:45:12;0.30;;;0.30;;
81934;SDS011;71405;47.674;-2.050;2023-09-07T00:47:38;0.30;;;0.30;;
81934;SDS011;71405;47.674;-2.050;2023-09-07T00:50:05;0.40;;;0.40;;
81934;SDS011;71405;47.674;-2.050;2023-09-07T00:52:31;0.52;;;0.40;;
81934;SDS011;71405;47.674;-2.050;2023-09-07T00:54:58;0.40;;;0.40;;
81934;SDS011;71405;47.674;-2.050;2023-09-07T00:57:24;0.40;;;0.40;;
81934;SDS011;71405;47.674;-2.050;2023-09-07T00:59:50;0.20;;;0.20;;
81934;SDS011;71405;47.674;-2.050;2023-09-07T01:02:16;0.40;;;0.40;;
81934;SDS011;71405;47.674;-2.050;2023-09-07T01:04:42;0.28;;;0.28;;
81934;SDS011;71405;47.674;-2.050;2023-09-07T01:07:09;0.30;;;0.30;;
81934;SDS011;71405;47.674;-2.050;2023-09-07T01:09:37;0.40;;;0.40;;
81934;SDS011;71405;47.674;-2.050;2023-09-07T01:12:06;0.43;;;0.43;;
81934;SDS011;71405;47.674;-2.050;2023-09-07T01:14:36;0.40;;;0.40;;
81934;SDS011;71405;47.674;-2.050;2023-09-07T01:17:02;0.30;;;0.30;;
81934;SDS011;71405;47.674;-2.050;2023-09-07T01:19:29;0.40;;;0.40;;
81934;SDS011;71405;47.674;-2.050;2023-09-07T01:21:55;0.20;;;0.20;;
81934;SDS011;71405;47.674;-2.050;2023-09-07T01:24:21;0.40;;;0.40;;
81934;SDS011;71405;47.674;-2.050;2023-09-07T01:26:49;0.30;;;0.30;;
81934;SDS011;71405;47.674;-2.050;2023-09-07T01:29:15;0.40;;;0.40;;
81934;SDS011;71405;47.674;-2.050;2023-09-07T01:31:44;0.60;;;0.40;;
81934;SDS011;71405;47.674;-2.050;2023-09-07T01:34:10;0.30;;;0.30;;
81934;SDS011;71405;47.674;-2.050;2023-09-07T01:36:36;0.47;;;0.32;;
81934;SDS011;71405;47.674;-2.050;2023-09-07T01:39:03;0.32;;;0.32;;
81934;SDS011;71405;47.674;-2.050;2023-09-07T01:41:30;0.40;;;0.40;;
81934;SDS011;71405;47.674;-2.050;2023-09-07T01:43:56;0.35;;;0.35;;
81934;SDS011;71405;47.674;-2.050;2023-09-07T01:46:22;0.50;;;0.50;;
81934;SDS011;71405;47.674;-2.050;2023-09-07T01:48:48;0.30;;;0.30;;
81934;SDS011;71405;47.674;-2.050;2023-09-07T01:51:13;0.30;;;0.30;;
81934;SDS011;71405;47.674;-2.050;2023-09-07T01:53:39;0.20;;;0.20;;
81934;SDS011;71405;47.674;-2.050;2023-09-07T01:56:05;0.30;;;0.30;;
81934;SDS011;71405;47.674;-2.050;2023-09-07T01:58:30;0.35;;;0.30;;
81934;SDS011;71405;47.674;-2.050;2023-09-07T02:00:57;0.40;;;0.40;;
81934;SDS011;71405;47.674;-2.050;2023-09-07T02:03:23;0.30;;;0.30;;
81934;SDS011;71405;47.674;-2.050;2023-09-07T02:05:49;0.40;;;0.40;;
81934;SDS011;71405;47.674;-2.050;2023-09-07T02:08:15;0.38;;;0.38;;
81934;SDS011;71405;47.674;-2.050;2023-09-07T02:10:40;0.30;;;0.30;;
81934;SDS011;71405;47.674;-2.050;2023-09-07T02:13:06;0.40;;;0.40;;
81934;SDS011;71405;47.674;-2.050;2023-09-07T02:15:31;0.30;;;0.30;;
81934;SDS011;71405;47.674;-2.050;2023-09-07T02:17:58;0.30;;;0.30;;
81934;SDS011;71405;47.674;-2.050;2023-09-07T02:20:23;0.20;;;0.20;;
81934;SDS011;71405;47.674;-2.050;2023-09-07T02:22:49;0.30;;;0.30;;
81934;SDS011;71405;47.674;-2.050;2023-09-07T02:25:15;0.40;;;0.40;;
81934;SDS011;71405;47.674;-2.050;2023-09-07T02:27:41;0.35;;;0.35;;
81934;SDS011;71405;47.674;-2.050;2023-09-07T02:30:06;0.60;;;0.50;;
81934;SDS011;71405;47.674;-2.050;2023-09-07T02:32:32;0.40;;;0.40;;
81934;SDS011;71405;47.674;-2.050;2023-09-07T02:34:58;0.30;;;0.30;;
81934;SDS011;71405;47.674;-2.050;2023-09-07T02:37:24;0.40;;;0.40;;
81934;SDS011;71405;47.674;-2.050;2023-09-07T02:39:50;0.40;;;0.40;;
81934;SDS011;71405;47.674;-2.050;2023-09-07T02:42:15;0.57;;;0.30;;
81934;SDS011;71405;47.674;-2.050;2023-09-07T02:44:41;0.40;;;0.40;;
81934;SDS011;71405;47.674;-2.050;2023-09-07T02:47:06;0.40;;;0.40;;
81934;SDS011;71405;47.674;-2.050;2023-09-07T02:49:32;0.40;;;0.40;;
81934;SDS011;71405;47.674;-2.050;2023-09-07T02:51:58;0.20;;;0.20;;
81934;SDS011;71405;47.674;-2.050;2023-09-07T02:54:24;0.30;;;0.30;;
81934;SDS011;71405;47.674;-2.050;2023-09-07T02:56:49;0.30;;;0.30;;
81934;SDS011;71405;47.674;-2.050;2023-09-07T02:59:15;0.32;;;0.32;;
81934;SDS011;71405;47.674;-2.050;2023-09-07T03:01:41;0.35;;;0.35;;
81934;SDS011;71405;47.674;-2.050;2023-09-07T03:04:06;0.40;;;0.40;;
81934;SDS011;71405;47.674;-2.050;2023-09-07T03:06:32;0.45;;;0.43;;
81934;SDS011;71405;47.674;-2.050;2023-09-07T03:08:58;0.50;;;0.50;;
81934;SDS011;71405;47.674;-2.050;2023-09-07T03:11:24;0.32;;;0.32;;
81934;SDS011;71405;47.674;-2.050;2023-09-07T03:13:50;0.30;;;0.30;;
81934;SDS011;71405;47.674;-2.050;2023-09-07T03:16:17;0.40;;;0.40;;
81934;SDS011;71405;47.674;-2.050;2023-09-07T03:18:43;0.40;;;0.40;;
81934;SDS011;71405;47.674;-2.050;2023-09-07T03:21:08;0.50;;;0.50;;
81934;SDS011;71405;47.674;-2.050;2023-09-07T03:23:34;0.32;;;0.32;;
81934;SDS011;71405;47.674;-2.050;2023-09-07T03:26:00;0.30;;;0.30;;
81934;SDS011;71405;47.674;-2.050;2023-09-07T03:28:26;0.28;;;0.28;;
81934;SDS011;71405;47.674;-2.050;2023-09-07T03:30:53;0.50;;;0.50;;
81934;SDS011;71405;47.674;-2.050;2023-09-07T03:33:19;0.20;;;0.20;;
81934;SDS011;71405;47.674;-2.050;2023-09-07T03:35:45;0.30;;;0.30;;
81934;SDS011;71405;47.674;-2.050;2023-09-07T03:38:11;0.30;;;0.30;;
81934;SDS011;71405;47.674;-2.050;2023-09-07T03:40:36;0.22;;;0.22;;
81934;SDS011;71405;47.674;-2.050;2023-09-07T03:43:02;0.40;;;0.40;;
81934;SDS011;71405;47.674;-2.050;2023-09-07T03:45:28;0.30;;;0.30;;
81934;SDS011;71405;47.674;-2.050;2023-09-07T03:47:54;0.40;;;0.40;;
81934;SDS011;71405;47.674;-2.050;2023-09-07T03:50:19;0.40;;;0.30;;
81934;SDS011;71405;47.674;-2.050;2023-09-07T03:52:45;0.30;;;0.28;;
81934;SDS011;71405;47.674;-2.050;2023-09-07T03:55:11;0.40;;;0.40;;
81934;SDS011;71405;47.674;-2.050;2023-09-07T03:57:36;0.30;;;0.30;;
81934;SDS011;71405;47.674;-2.050;2023-09-07T04:00:02;0.30;;;0.30;;
81934;SDS011;71405;47.674;-2.050;2023-09-07T04:02:32;0.30;;;0.30;;
81934;SDS011;71405;47.674;-2.050;2023-09-07T04:04:58;0.22;;;0.22;;
81934;SDS011;71405;47.674;-2.050;2023-09-07T04:07:26;0.20;;;0.20;;
81934;SDS011;71405;47.674;-2.050;2023-09-07T04:09:52;0.30;;;0.30;;
81934;SDS011;71405;47.674;-2.050;2023-09-07T04:12:18;0.32;;;0.30;;
81934;SDS011;71405;47.674;-2.050;2023-09-07T04:14:43;0.28;;;0.28;;
81934;SDS011;71405;47.674;-2.050;2023-09-07T04:17:09;0.50;;;0.30;;
81934;SDS011;71405;47.674;-2.050;2023-09-07T04:19:35;0.20;;;0.20;;
81934;SDS011;71405;47.674;-2.050;2023-09-07T04:22:01;0.30;;;0.30;;
81934;SDS011;71405;47.674;-2.050;2023-09-07T04:24:26;0.43;;;0.30;;
81934;SDS011;71405;47.674;-2.050;2023-09-07T04:26:58;0.30;;;0.30;;
81934;SDS011;71405;47.674;-2.050;2023-09-07T04:29:28;0.30;;;0.30;;
81934;SDS011;71405;47.674;-2.050;2023-09-07T04:31:54;0.30;;;0.30;;
81934;SDS011;71405;47.674;-2.050;2023-09-07T04:34:20;0.30;;;0.30;;
81934;SDS011;71405;47.674;-2.050;2023-09-07T04:36:47;0.20;;;0.20;;
81934;SDS011;71405;47.674;-2.050;2023-09-07T04:39:12;0.20;;;0.20;;
81934;SDS011;71405;47.674;-2.050;2023-09-07T04:41:39;0.20;;;0.20;;
81934;SDS011;71405;47.674;-2.050;2023-09-07T04:44:05;0.50;;;0.50;;
81934;SDS011;71405;47.674;-2.050;2023-09-07T04:46:31;0.45;;;0.32;;
81934;SDS011;71405;47.674;-2.050;2023-09-07T04:48:57;0.32;;;0.30;;
81934;SDS011;71405;47.674;-2.050;2023-09-07T04:51:22;0.25;;;0.25;;
81934;SDS011;71405;47.674;-2.050;2023-09-07T04:53:50;0.30;;;0.30;;
81934;SDS011;71405;47.674;-2.050;2023-09-07T04:56:16;0.30;;;0.30;;
81934;SDS011;71405;47.674;-2.050;2023-09-07T04:58:42;0.30;;;0.30;;
81934;SDS011;71405;47.674;-2.050;2023-09-07T05:01:09;0.20;;;0.20;;
81934;SDS011;71405;47.674;-2.050;2023-09-07T05:03:36;0.25;;;0.25;;
81934;SDS011;71405;47.674;-2.050;2023-09-07T05:06:03;0.30;;;0.30;;
81934;SDS011;71405;47.674;-2.050;2023-09-07T05:08:30;0.30;;;0.30;;
81934;SDS011;71405;47.674;-2.050;2023-09-07T05:10:56;0.20;;;0.20;;
81934;SDS011;71405;47.674;-2.050;2023-09-07T05:13:23;0.30;;;0.30;;
81934;SDS011;71405;47.674;-2.050;2023-09-07T05:15:50;0.40;;;0.40;;
81934;SDS011;71405;47.674;-2.050;2023-09-07T05:18:16;0.40;;;0.40;;
81934;SDS011;71405;47.674;-2.050;2023-09-07T05:20:43;0.32;;;0.32;;
81934;SDS011;71405;47.674;-2.050;2023-09-07T05:23:21;0.47;;;0.47;;
81934;SDS011;71405;47.674;-2.050;2023-09-07T05:25:48;0.35;;;0.35;;
81934;SDS011;71405;47.674;-2.050;2023-09-07T05:28:18;0.30;;;0.30;;
81934;SDS011;71405;47.674;-2.050;2023-09-07T05:30:44;0.40;;;0.40;;
81934;SDS011;71405;47.674;-2.050;2023-09-07T05:33:10;0.45;;;0.40;;
81934;SDS011;71405;47.674;-2.050;2023-09-07T05:35:37;0.40;;;0.40;;
81934;SDS011;71405;47.674;-2.050;2023-09-07T05:38:06;0.30;;;0.30;;
81934;SDS011;71405;47.674;-2.050;2023-09-07T05:40:36;0.68;;;0.40;;
81934;SDS011;71405;47.674;-2.050;2023-09-07T05:43:02;0.50;;;0.50;;
81934;SDS011;71405;47.674;-2.050;2023-09-07T05:45:29;0.40;;;0.40;;
81934;SDS011;71405;47.674;-2.050;2023-09-07T05:47:56;0.47;;;0.43;;
81934;SDS011;71405;47.674;-2.050;2023-09-07T05:50:22;0.60;;;0.60;;
81934;SDS011;71405;47.674;-2.050;2023-09-07T05:52:48;0.57;;;0.52;;
81934;SDS011;71405;47.674;-2.050;2023-09-07T05:55:13;0.50;;;0.50;;
81934;SDS011;71405;47.674;-2.050;2023-09-07T05:57:39;0.50;;;0.50;;
81934;SDS011;71405;47.674;-2.050;2023-09-07T06:00:05;0.50;;;0.50;;
81934;SDS011;71405;47.674;-2.050;2023-09-07T06:02:31;0.70;;;0.70;;
81934;SDS011;71405;47.674;-2.050;2023-09-07T06:04:57;0.55;;;0.55;;
81934;SDS011;71405;47.674;-2.050;2023-09-07T06:07:22;0.50;;;0.47;;
81934;SDS011;71405;47.674;-2.050;2023-09-07T06:09:48;0.52;;;0.52;;
81934;SDS011;71405;47.674;-2.050;2023-09-07T06:12:14;0.35;;;0.35;;
81934;SDS011;71405;47.674;-2.050;2023-09-07T06:14:39;0.70;;;0.60;;
81934;SDS011;71405;47.674;-2.050;2023-09-07T06:17:05;0.70;;;0.70;;
81934;SDS011;71405;47.674;-2.050;2023-09-07T06:19:31;0.40;;;0.40;;
81934;SDS011;71405;47.674;-2.050;2023-09-07T06:21:58;0.40;;;0.40;;
81934;SDS011;71405;47.674;-2.050;2023-09-07T06:24:23;0.40;;;0.40;;
81934;SDS011;71405;47.674;-2.050;2023-09-07T06:26:49;0.50;;;0.43;;
81934;SDS011;71405;47.674;-2.050;2023-09-07T06:29:15;0.40;;;0.40;;
81934;SDS011;71405;47.674;-2.050;2023-09-07T06:31:40;0.50;;;0.40;;
81934;SDS011;71405;47.674;-2.050;2023-09-07T06:34:06;0.50;;;0.50;;
81934;SDS011;71405;47.674;-2.050;2023-09-07T06:36:31;0.93;;;0.63;;
81934;SDS011;71405;47.674;-2.050;2023-09-07T06:38:57;0.60;;;0.60;;
81934;SDS011;71405;47.674;-2.050;2023-09-07T06:41:23;1.02;;;0.80;;
81934;SDS011;71405;47.674;-2.050;2023-09-07T06:43:49;0.63;;;0.63;;
81934;SDS011;71405;47.674;-2.050;2023-09-07T06:46:15;0.65;;;0.65;;
81934;SDS011;71405;47.674;-2.050;2023-09-07T06:48:41;0.80;;;0.80;;
81934;SDS011;71405;47.674;-2.050;2023-09-07T06:51:06;0.70;;;0.70;;
81934;SDS011;71405;47.674;-2.050;2023-09-07T06:53:33;0.82;;;0.80;;
81934;SDS011;71405;47.674;-2.050;2023-09-07T06:56:02;0.70;;;0.70;;
81934;SDS011;71405;47.674;-2.050;2023-09-07T06:58:28;0.80;;;0.80;;
81934;SDS011;71405;47.674;-2.050;2023-09-07T07:00:59;0.57;;;0.57;;
81934;SDS011;71405;47.674;-2.050;2023-09-07T07:03:29;0.70;;;0.70;;
81934;SDS011;71405;47.674;-2.050;2023-09-07T07:05:55;0.50;;;0.50;;
81934;SDS011;71405;47.674;-2.050;2023-09-07T07:08:21;0.77;;;0.77;;
81934;SDS011;71405;47.674;-2.050;2023-09-07T07:10:48;0.52;;;0.52;;
81934;SDS011;71405;47.674;-2.050;2023-09-07T07:13:14;0.50;;;0.50;;
81934;SDS011;71405;47.674;-2.050;2023-09-07T07:15:39;0.60;;;0.60;;
81934;SDS011;71405;47.674;-2.050;2023-09-07T07:18:05;0.50;;;0.50;;
81934;SDS011;71405;47.674;-2.050;2023-09-07T07:20:37;0.60;;;0.60;;
81934;SDS011;71405;47.674;-2.050;2023-09-07T07:23:03;0.40;;;0.40;;
81934;SDS011;71405;47.674;-2.050;2023-09-07T07:25:29;0.40;;;0.40;;
81934;SDS011;71405;47.674;-2.050;2023-09-07T07:27:58;0.60;;;0.60;;
81934;SDS011;71405;47.674;-2.050;2023-09-07T07:30:26;0.68;;;0.50;;
81934;SDS011;71405;47.674;-2.050;2023-09-07T07:32:54;0.40;;;0.40;;
81934;SDS011;71405;47.674;-2.050;2023-09-07T07:35:20;0.50;;;0.50;;
81934;SDS011;71405;47.674;-2.050;2023-09-07T07:37:46;0.43;;;0.43;;
81934;SDS011;71405;47.674;-2.050;2023-09-07T07:40:12;0.63;;;0.50;;
81934;SDS011;71405;47.674;-2.050;2023-09-07T07:42:37;0.40;;;0.40;;
81934;SDS011;71405;47.674;-2.050;2023-09-07T07:45:03;0.57;;;0.57;;
81934;SDS011;71405;47.674;-2.050;2023-09-07T07:47:29;0.40;;;0.40;;
81934;SDS011;71405;47.674;-2.050;2023-09-07T07:49:55;0.50;;;0.50;;
81934;SDS011;71405;47.674;-2.050;2023-09-07T07:52:20;0.68;;;0.68;;
81934;SDS011;71405;47.674;-2.050;2023-09-07T07:54:47;0.30;;;0.30;;
81934;SDS011;71405;47.674;-2.050;2023-09-07T07:57:12;0.38;;;0.38;;
81934;SDS011;71405;47.674;-2.050;2023-09-07T07:59:38;0.50;;;0.50;;
81934;SDS011;71405;47.674;-2.050;2023-09-07T08:02:04;0.30;;;0.30;;
81934;SDS011;71405;47.674;-2.050;2023-09-07T08:04:31;0.50;;;0.50;;
81934;SDS011;71405;47.674;-2.050;2023-09-07T08:06:57;0.40;;;0.40;;
81934;SDS011;71405;47.674;-2.050;2023-09-07T08:09:28;0.40;;;0.40;;
81934;SDS011;71405;47.674;-2.050;2023-09-07T08:11:55;0.40;;;0.40;;
81934;SDS011;71405;47.674;-2.050;2023-09-07T08:14:21;0.40;;;0.40;;
81934;SDS011;71405;47.674;-2.050;2023-09-07T08:16:47;0.40;;;0.40;;
81934;SDS011;71405;47.674;-2.050;2023-09-07T08:19:13;0.50;;;0.50;;
81934;SDS011;71405;47.674;-2.050;2023-09-07T08:21:39;0.50;;;0.50;;
81934;SDS011;71405;47.674;-2.050;2023-09-07T08:24:07;0.45;;;0.45;;
81934;SDS011;71405;47.674;-2.050;2023-09-07T08:26:33;0.30;;;0.30;;
81934;SDS011;71405;47.674;-2.050;2023-09-07T08:29:00;0.50;;;0.50;;
81934;SDS011;71405;47.674;-2.050;2023-09-07T08:31:30;0.50;;;0.50;;
81934;SDS011;71405;47.674;-2.050;2023-09-07T08:34:05;0.60;;;0.60;;
81934;SDS011;71405;47.674;-2.050;2023-09-07T08:36:34;0.40;;;0.40;;
81934;SDS011;71405;47.674;-2.050;2023-09-07T08:39:03;0.63;;;0.52;;
81934;SDS011;71405;47.674;-2.050;2023-09-07T08:41:41;0.40;;;0.40;;
81934;SDS011;71405;47.674;-2.050;2023-09-07T08:44:12;0.40;;;0.40;;
81934;SDS011;71405;47.674;-2.050;2023-09-07T08:46:41;0.40;;;0.40;;
81934;SDS011;71405;47.674;-2.050;2023-09-07T08:49:07;0.43;;;0.43;;
81934;SDS011;71405;47.674;-2.050;2023-09-07T08:51:34;0.30;;;0.30;;
81934;SDS011;71405;47.674;-2.050;2023-09-07T08:54:02;0.50;;;0.50;;
81934;SDS011;71405;47.674;-2.050;2023-09-07T08:56:29;0.50;;;0.50;;
81934;SDS011;71405;47.674;-2.050;2023-09-07T08:58:54;0.40;;;0.40;;
81934;SDS011;71405;47.674;-2.050;2023-09-07T09:01:20;0.40;;;0.40;;
81934;SDS011;71405;47.674;-2.050;2023-09-07T09:03:47;0.40;;;0.40;;
81934;SDS011;71405;47.674;-2.050;2023-09-07T09:06:17;0.35;;;0.35;;
81934;SDS011;71405;47.674;-2.050;2023-09-07T09:08:47;0.40;;;0.40;;
81934;SDS011;71405;47.674;-2.050;2023-09-07T09:11:16;0.38;;;0.38;;
81934;SDS011;71405;47.674;-2.050;2023-09-07T09:13:42;0.43;;;0.43;;
81934;SDS011;71405;47.674;-2.050;2023-09-07T09:16:09;0.40;;;0.40;;
81934;SDS011;71405;47.674;-2.050;2023-09-07T09:18:36;0.38;;;0.38;;
81934;SDS011;71405;47.674;-2.050;2023-09-07T09:21:02;0.40;;;0.40;;
81934;SDS011;71405;47.674;-2.050;2023-09-07T09:23:32;0.30;;;0.30;;
81934;SDS011;71405;47.674;-2.050;2023-09-07T09:25:59;0.50;;;0.50;;
81934;SDS011;71405;47.674;-2.050;2023-09-07T09:28:26;0.40;;;0.40;;
81934;SDS011;71405;47.674;-2.050;2023-09-07T09:30:52;0.40;;;0.40;;
81934;SDS011;71405;47.674;-2.050;2023-09-07T09:33:21;0.47;;;0.47;;
81934;SDS011;71405;47.674;-2.050;2023-09-07T09:35:47;0.47;;;0.47;;
81934;SDS011;71405;47.674;-2.050;2023-09-07T09:38:13;0.30;;;0.30;;
81934;SDS011;71405;47.674;-2.050;2023-09-07T09:40:39;0.25;;;0.25;;
81934;SDS011;71405;47.674;-2.050;2023-09-07T09:43:05;0.40;;;0.40;;
81934;SDS011;71405;47.674;-2.050;2023-09-07T09:45:31;0.32;;;0.32;;
81934;SDS011;71405;47.674;-2.050;2023-09-07T09:47:58;0.40;;;0.40;;
81934;SDS011;71405;47.674;-2.050;2023-09-07T09:50:26;0.30;;;0.30;;
81934;SDS011;71405;47.674;-2.050;2023-09-07T09:52:53;0.30;;;0.30;;
81934;SDS011;71405;47.674;-2.050;2023-09-07T09:55:19;0.43;;;0.43;;
81934;SDS011;71405;47.674;-2.050;2023-09-07T09:57:45;0.40;;;0.40;;
81934;SDS011;71405;47.674;-2.050;2023-09-07T10:00:10;0.30;;;0.30;;
81934;SDS011;71405;47.674;-2.050;2023-09-07T10:02:47;0.40;;;0.40;;
81934;SDS011;71405;47.674;-2.050;2023-09-07T10:05:16;0.32;;;0.30;;
81934;SDS011;71405;47.674;-2.050;2023-09-07T10:07:43;0.40;;;0.40;;
81934;SDS011;71405;47.674;-2.050;2023-09-07T10:10:13;0.28;;;0.28;;
81934;SDS011;71405;47.674;-2.050;2023-09-07T10:12:43;0.40;;;0.30;;
81934;SDS011;71405;47.674;-2.050;2023-09-07T10:15:23;0.30;;;0.30;;
81934;SDS011;71405;47.674;-2.050;2023-09-07T10:17:49;0.30;;;0.30;;
81934;SDS011;71405;47.674;-2.050;2023-09-07T10:20:17;0.30;;;0.30;;
81934;SDS011;71405;47.674;-2.050;2023-09-07T10:22:44;0.35;;;0.35;;
81934;SDS011;71405;47.674;-2.050;2023-09-07T10:25:22;0.40;;;0.40;;
81934;SDS011;71405;47.674;-2.050;2023-09-07T10:27:48;0.55;;;0.50;;
81934;SDS011;71405;47.674;-2.050;2023-09-07T10:30:14;0.30;;;0.30;;
81934;SDS011;71405;47.674;-2.050;2023-09-07T10:32:44;0.40;;;0.40;;
81934;SDS011;71405;47.674;-2.050;2023-09-07T10:35:14;0.20;;;0.20;;
81934;SDS011;71405;47.674;-2.050;2023-09-07T10:37:44;0.30;;;0.30;;
81934;SDS011;71405;47.674;-2.050;2023-09-07T10:40:20;0.30;;;0.30;;
81934;SDS011;71405;47.674;-2.050;2023-09-07T10:42:47;0.28;;;0.28;;
81934;SDS011;71405;47.674;-2.050;2023-09-07T10:45:13;0.47;;;0.47;;
81934;SDS011;71405;47.674;-2.050;2023-09-07T10:47:42;0.25;;;0.25;;
81934;SDS011;71405;47.674;-2.050;2023-09-07T10:50:12;0.40;;;0.40;;
81934;SDS011;71405;47.674;-2.050;2023-09-07T10:52:41;0.25;;;0.25;;
81934;SDS011;71405;47.674;-2.050;2023-09-07T10:55:08;0.40;;;0.40;;
81934;SDS011;71405;47.674;-2.050;2023-09-07T10:57:42;0.40;;;0.40;;
81934;SDS011;71405;47.674;-2.050;2023-09-07T11:00:09;0.30;;;0.30;;
81934;SDS011;71405;47.674;-2.050;2023-09-07T11:02:39;0.43;;;0.43;;
81934;SDS011;71405;47.674;-2.050;2023-09-07T11:05:06;0.25;;;0.25;;
81934;SDS011;71405;47.674;-2.050;2023-09-07T11:07:32;0.30;;;0.30;;
81934;SDS011;71405;47.674;-2.050;2023-09-07T11:09:58;0.30;;;0.30;;
81934;SDS011;71405;47.674;-2.050;2023-09-07T11:12:24;0.25;;;0.25;;
81934;SDS011;71405;47.674;-2.050;2023-09-07T11:14:51;0.28;;;0.28;;
81934;SDS011;71405;47.674;-2.050;2023-09-07T11:17:25;0.28;;;0.28;;
81934;SDS011;71405;47.674;-2.050;2023-09-07T11:19:53;0.22;;;0.22;;
81934;SDS011;71405;47.674;-2.050;2023-09-07T11:22:19;0.30;;;0.30;;
81934;SDS011;71405;47.674;-2.050;2023-09-07T11:24:45;0.30;;;0.30;;
81934;SDS011;71405;47.674;-2.050;2023-09-07T11:27:11;0.30;;;0.28;;
81934;SDS011;71405;47.674;-2.050;2023-09-07T11:29:37;0.20;;;0.20;;
81934;SDS011;71405;47.674;-2.050;2023-09-07T11:32:10;0.35;;;0.35;;
81934;SDS011;71405;47.674;-2.050;2023-09-07T11:34:47;0.30;;;0.30;;
81934;SDS011;71405;47.674;-2.050;2023-09-07T11:37:18;0.30;;;0.30;;
81934;SDS011;71405;47.674;-2.050;2023-09-07T11:39:48;0.30;;;0.30;;
81934;SDS011;71405;47.674;-2.050;2023-09-07T11:42:13;0.30;;;0.30;;
81934;SDS011;71405;47.674;-2.050;2023-09-07T11:44:39;0.20;;;0.20;;
81934;SDS011;71405;47.674;-2.050;2023-09-07T11:47:05;0.30;;;0.30;;
81934;SDS011;71405;47.674;-2.050;2023-09-07T11:49:31;0.40;;;0.30;;
81934;SDS011;71405;47.674;-2.050;2023-09-07T11:51:57;0.20;;;0.20;;
81934;SDS011;71405;47.674;-2.050;2023-09-07T11:54:23;0.20;;;0.20;;
81934;SDS011;71405;47.674;-2.050;2023-09-07T11:56:49;0.30;;;0.30;;
81934;SDS011;71405;47.674;-2.050;2023-09-07T11:59:15;0.40;;;0.40;;
81934;SDS011;71405;47.674;-2.050;2023-09-07T12:01:43;0.30;;;0.30;;
81934;SDS011;71405;47.674;-2.050;2023-09-07T12:04:09;0.55;;;0.30;;
81934;SDS011;71405;47.674;-2.050;2023-09-07T12:06:35;0.28;;;0.28;;
81934;SDS011;71405;47.674;-2.050;2023-09-07T12:09:04;0.30;;;0.30;;
81934;SDS011;71405;47.674;-2.050;2023-09-07T12:11:32;0.20;;;0.20;;
81934;SDS011;71405;47.674;-2.050;2023-09-07T12:13:58;0.28;;;0.28;;
81934;SDS011;71405;47.674;-2.050;2023-09-07T12:16:27;0.40;;;0.40;;
81934;SDS011;71405;47.674;-2.050;2023-09-07T12:18:53;0.30;;;0.30;;
81934;SDS011;71405;47.674;-2.050;2023-09-07T12:21:19;0.20;;;0.20;;
81934;SDS011;71405;47.674;-2.050;2023-09-07T12:23:45;0.20;;;0.20;;
81934;SDS011;71405;47.674;-2.050;2023-09-07T12:26:12;0.30;;;0.30;;
81934;SDS011;71405;47.674;-2.050;2023-09-07T12:28:39;0.20;;;0.20;;
81934;SDS011;71405;47.674;-2.050;2023-09-07T12:31:05;0.22;;;0.22;;
81934;SDS011;71405;47.674;-2.050;2023-09-07T12:33:30;0.28;;;0.28;;
81934;SDS011;71405;47.674;-2.050;2023-09-07T12:35:57;0.13;;;0.13;;
81934;SDS011;71405;47.674;-2.050;2023-09-07T12:38:23;0.10;;;0.10;;
81934;SDS011;71405;47.674;-2.050;2023-09-07T12:40:53;0.30;;;0.30;;
81934;SDS011;71405;47.674;-2.050;2023-09-07T12:43:19;0.20;;;0.20;;
81934;SDS011;71405;47.674;-2.050;2023-09-07T12:45:45;0.20;;;0.20;;
81934;SDS011;71405;47.674;-2.050;2023-09-07T12:48:11;0.38;;;0.38;;
81934;SDS011;71405;47.674;-2.050;2023-09-07T12:50:37;0.20;;;0.20;;
81934;SDS011;71405;47.674;-2.050;2023-09-07T12:53:04;0.30;;;0.30;;
81934;SDS011;71405;47.674;-2.050;2023-09-07T12:55:29;0.20;;;0.20;;
81934;SDS011;71405;47.674;-2.050;2023-09-07T12:57:55;0.30;;;0.30;;
81934;SDS011;71405;47.674;-2.050;2023-09-07T13:00:21;0.20;;;0.20;;
81934;SDS011;71405;47.674;-2.050;2023-09-07T13:02:47;0.20;;;0.20;;
81934;SDS011;71405;47.674;-2.050;2023-09-07T13:05:12;0.20;;;0.20;;
81934;SDS011;71405;47.674;-2.050;2023-09-07T13:07:38;0.70;;;0.40;;
81934;SDS011;71405;47.674;-2.050;2023-09-07T13:10:05;0.30;;;0.30;;
81934;SDS011;71405;47.674;-2.050;2023-09-07T13:12:31;0.20;;;0.20;;
81934;SDS011;71405;47.674;-2.050;2023-09-07T13:14:57;0.30;;;0.30;;
81934;SDS011;71405;47.674;-2.050;2023-09-07T13:17:23;0.35;;;0.30;;
81934;SDS011;71405;47.674;-2.050;2023-09-07T13:19:49;0.30;;;0.30;;
81934;SDS011;71405;47.674;-2.050;2023-09-07T13:22:15;0.30;;;0.30;;
81934;SDS011;71405;47.674;-2.050;2023-09-07T13:24:41;0.20;;;0.20;;
81934;SDS011;71405;47.674;-2.050;2023-09-07T13:27:07;0.30;;;0.30;;
81934;SDS011;71405;47.674;-2.050;2023-09-07T13:29:35;0.20;;;0.20;;
81934;SDS011;71405;47.674;-2.050;2023-09-07T13:32:01;0.28;;;0.28;;
81934;SDS011;71405;47.674;-2.050;2023-09-07T13:34:27;0.17;;;0.17;;
81934;SDS011;71405;47.674;-2.050;2023-09-07T13:36:53;0.20;;;0.20;;
81934;SDS011;71405;47.674;-2.050;2023-09-07T13:39:19;0.32;;;0.32;;
81934;SDS011;71405;47.674;-2.050;2023-09-07T13:41:45;0.30;;;0.30;;
81934;SDS011;71405;47.674;-2.050;2023-09-07T13:44:11;0.30;;;0.30;;
81934;SDS011;71405;47.674;-2.050;2023-09-07T13:46:38;0.30;;;0.30;;
81934;SDS011;71405;47.674;-2.050;2023-09-07T13:49:04;0.32;;;0.30;;
81934;SDS011;71405;47.674;-2.050;2023-09-07T13:51:30;0.40;;;0.30;;
81934;SDS011;71405;47.674;-2.050;2023-09-07T13:54:03;0.30;;;0.30;;
81934;SDS011;71405;47.674;-2.050;2023-09-07T13:56:30;0.28;;;0.28;;
81934;SDS011;71405;47.674;-2.050;2023-09-07T13:58:56;0.22;;;0.22;;
81934;SDS011;71405;47.674;-2.050;2023-09-07T14:01:22;0.20;;;0.20;;
81934;SDS011;71405;47.674;-2.050;2023-09-07T14:03:49;0.30;;;0.30;;
81934;SDS011;71405;47.674;-2.050;2023-09-07T14:06:14;0.30;;;0.30;;
81934;SDS011;71405;47.674;-2.050;2023-09-07T14:08:40;0.30;;;0.30;;
81934;SDS011;71405;47.674;-2.050;2023-09-07T14:11:07;0.30;;;0.30;;
81934;SDS011;71405;47.674;-2.050;2023-09-07T14:13:32;0.28;;;0.25;;
81934;SDS011;71405;47.674;-2.050;2023-09-07T14:16:01;0.28;;;0.28;;
81934;SDS011;71405;47.674;-2.050;2023-09-07T14:18:27;0.20;;;0.20;;
81934;SDS011;71405;47.674;-2.050;2023-09-07T14:20:53;0.20;;;0.20;;
81934;SDS011;71405;47.674;-2.050;2023-09-07T14:23:22;0.43;;;0.40;;
81934;SDS011;71405;47.674;-2.050;2023-09-07T14:25:50;0.25;;;0.25;;
81934;SDS011;71405;47.674;-2.050;2023-09-07T14:28:19;0.30;;;0.30;;
81934;SDS011;71405;47.674;-2.050;2023-09-07T14:30:45;0.30;;;0.30;;